Terminal Aerodrome Forecast
Issued by NWS Sioux Falls, SD

Home | Current Version | Previous Version | Graphics & Text | Print | Product List | Glossary Off
Versions: 1 2 3 4 5 6 7 8 9 10 11 12 13 14 15 16

000
FTUS43 KFSD 220522
TAFSUX
TAF
KSUX 220522Z 2206/2306 14008KT P6SM FEW250
     FM221100 15010KT P6SM SCT250 WS015/17035KT
     FM221300 15013G22KT P6SM SCT200
     FM221700 16020G30KT P6SM SCT100
     FM230200 16016G24KT P6SM BKN040=

USA.gov is the U.S. government's official web portal to all federal, state and local government web resources and services.